Anadyr', Russia
Current Conditions -  °F | °C
As of 4:16 PM on Monday 20 Oct 2014 (Local Time) from PAGM Reporting Station
Overcast Overcast  
Wind Chill: 16°   Ceiling: 2300
Heat Index: 30°   Visibility: 10mi
Dew Point: 27°   Wind: 26mph
Humidity: 86%   Direction: 360°N
Pressure: 29.53"   Gusts: 35mph
Location:  64.75°N, 177.48°E
Report Text: PAGM 200416Z AUTO 36023G30KT 10SM SCT018 BKN023 OVC030 M01/M03 A2953 RMK AO1
Loading
Personal Weather Stations






























Interactive Weather Map
Tropical Storm Tracking
New forecast layout! Learn more

10-Day Weather Forecast

Advertisements
Track Severe Weather on mobile